Ana Sayfa
METAR-TAF:

METAR-TAF

Havaalanları :

Longyearbyen, Norveç

Enlem: 78-15N, Boylam: 015-28E, yükseklik: 2 m

Güncel hava durumu gözlemi

Rapor saat 13:50 UTC de 31 dakika önce yapıldı.
Rüzgar doğu/güneydoğudan 14 kt
Sıcaklık -12°C
Nem 61%
Basınç 1006 hPa
Görüş mesafesi 10 km veya daha fazla
2500 ft yükseklikte az bulutlu

METAR: ENSB 251350Z 11014KT 9999 FEW025 M12/M18 Q1006 RMK WIND 1400FT 14001KT

Saat: 16:21 (14:21 UTC)

Tahmin

Ayın 25'si saat 12 UTC'den ayın 26'si saat 12 UTC'ye kadar geçerli Tahmin
Rüzgar doğu/güneydoğudan 12 kt
Görüş mesafesi 10 km veya daha fazla
2000 ft yükseklikte az bulutlu

TAF: ENSB 2512/2612 11012KT 9999 FEW020

4.000'den fazla havaalanı için hava durumu gözlemleri ve tahminleri (METAR ve TAF raporları).

Kullanılabilir istasyonlar harita üzerinde sarı ve kırmızı noktalarla gösterilir.

İstasyonun adını görmek için fareyi noktanın üzerinde gezdirin.

Sonrasında hava gözlem ve tahminlerini görmek için tıklayın.

Haritayı değiştirmek için: yaklaştırmak için siyah artı işaretli yeşil düğmeye ve uzaklaştırmak için de eksi işaretli düğmeye hızla tıklayın; bitişik haritalar için yeşil okları kullanın.


METAR-TAF: